Wetterdaten: Woche 05.01.15 - 11.01.15 (KW2)
Datum Zeit Temp. A. Feuchte A. Luftdruck Regen Wind Richtung Sonnenschein ET UV Solar Taupunkt Windchill Windben
05.01.2015 00:00 0,4 C 90 % 1033,0 hPa 0,0 l/m 3,8 km/h (1 Bft) W 0,00 h 0,000 mm 0,0 UV-I 0 W/m -1,1 C 0,3 C 6,5 km/h (2 Bft)
05.01.2015 01:00 0,3 C 92 % 1033,2 hPa 0,0 l/m 3,5 km/h (1 Bft) W 0,00 h 0,000 mm 0,0 UV-I 0 W/m -0,9 C 0,3 C 6,1 km/h (2 Bft)
05.01.2015 02:00 0,4 C 92 % 1033,2 hPa 0,0 l/m 6,3 km/h (2 Bft) W 0,00 h 0,000 mm 0,0 UV-I 0 W/m -0,7 C -0,1 C 10,0 km/h (2 Bft)
05.01.2015 03:00 0,4 C 93 % 1033,0 hPa 0,0 l/m 6,8 km/h (2 Bft) W 0,00 h 0,000 mm 0,0 UV-I 0 W/m -0,6 C -0,5 C 10,9 km/h (2 Bft)
05.01.2015 04:00 0,5 C 92 % 1032,7 hPa 0,0 l/m 7,9 km/h (2 Bft) W-NW 0,00 h 0,000 mm 0,0 UV-I 0 W/m -0,6 C -1,3 C 12,7 km/h (3 Bft)
05.01.2015 05:00 0,6 C 92 % 1032,6 hPa 0,0 l/m 8,6 km/h (2 Bft) W-NW 0,00 h 0,000 mm 0,0 UV-I 0 W/m -0,6 C -1,6 C 13,7 km/h (3 Bft)
05.01.2015 06:00 0,6 C 91 % 1032,4 hPa 0,0 l/m 7,0 km/h (2 Bft) W 0,00 h 0,000 mm 0,0 UV-I 0 W/m -0,8 C -0,4 C 10,8 km/h (2 Bft)
05.01.2015 07:00 0,3 C 91 % 1032,4 hPa 0,0 l/m 8,4 km/h (2 Bft) W 0,00 h 0,000 mm 0,0 UV-I 0 W/m -1,0 C -1,6 C 12,8 km/h (3 Bft)
05.01.2015 08:00 0,4 C 91 % 1032,1 hPa 0,0 l/m 9,4 km/h (2 Bft) W-SW 0,00 h 0,000 mm 0,0 UV-I 10 W/m -0,9 C -2,5 C 14,8 km/h (3 Bft)
05.01.2015 09:00 0,4 C 90 % 1031,8 hPa 0,0 l/m 12,1 km/h (2 Bft) W-SW 0,30 h 0,000 mm 0,0 UV-I 43 W/m -1,0 C -4,5 C 18,6 km/h (3 Bft)
05.01.2015 10:00 0,6 C 89 % 1031,5 hPa 0,0 l/m 12,8 km/h (3 Bft) W-SW 0,97 h 0,025 mm 0,6 UV-I 100 W/m -0,9 C -4,7 C 19,7 km/h (3 Bft)
05.01.2015 11:00 1,0 C 87 % 1031,2 hPa 0,0 l/m 12,6 km/h (3 Bft) W-SW 1,00 h 0,051 mm 0,8 UV-I 181 W/m -1,0 C -4,1 C 19,5 km/h (3 Bft)
05.01.2015 12:00 1,3 C 84 % 1030,6 hPa 0,0 l/m 12,1 km/h (2 Bft) W-SW 1,00 h 0,076 mm 0,9 UV-I 249 W/m -1,1 C -3,4 C 18,8 km/h (3 Bft)
05.01.2015 13:00 1,2 C 84 % 1030,1 hPa 0,0 l/m 10,5 km/h (2 Bft) W-SW 1,00 h 0,102 mm 0,8 UV-I 227 W/m -1,2 C -2,5 C 16,2 km/h (3 Bft)
05.01.2015 14:00 1,3 C 84 % 1029,8 hPa 0,0 l/m 8,8 km/h (2 Bft) W-SW 1,00 h 0,076 mm 0,6 UV-I 161 W/m -1,1 C -1,0 C 14,0 km/h (3 Bft)
05.01.2015 15:00 0,9 C 86 % 1030,0 hPa 0,0 l/m 6,4 km/h (2 Bft) W-SW 0,93 h 0,076 mm 0,0 UV-I 91 W/m -1,2 C 0,1 C 9,9 km/h (2 Bft)
05.01.2015 16:00 0,3 C 87 % 1030,3 hPa 0,0 l/m 1,5 km/h (1 Bft) W 0,03 h 0,025 mm 0,0 UV-I 21 W/m -1,5 C 0,3 C 3,8 km/h (1 Bft)
05.01.2015 17:00 -0,3 C 90 % 1030,4 hPa 0,0 l/m 1,7 km/h (1 Bft) W 0,00 h 0,000 mm 0,0 UV-I 0 W/m -1,8 C -0,3 C 3,5 km/h (1 Bft)
05.01.2015 18:00 -0,3 C 91 % 1030,4 hPa 0,0 l/m 0,8 km/h (0 Bft) W-SW 0,00 h 0,000 mm 0,0 UV-I 0 W/m -1,6 C -0,3 C 2,6 km/h (1 Bft)
05.01.2015 19:00 -0,2 C 91 % 1030,2 hPa 0,0 l/m 4,2 km/h (1 Bft) W 0,00 h 0,000 mm 0,0 UV-I 0 W/m -1,6 C -0,3 C 7,3 km/h (2 Bft)
05.01.2015 20:00 -0,1 C 90 % 1030,0 hPa 0,0 l/m 3,9 km/h (1 Bft) W 0,00 h 0,000 mm 0,0 UV-I 0 W/m -1,6 C -0,3 C 6,9 km/h (2 Bft)
05.01.2015 21:00 -0,4 C 91 % 1029,9 hPa 0,0 l/m 0,1 km/h (0 Bft) N 0,00 h 0,001 mm 0,0 UV-I 0 W/m -1,8 C -0,4 C 0,3 km/h (0 Bft)
05.01.2015 22:00 -0,9 C 92 % 1029,7 hPa 0,0 l/m 0,0 km/h (0 Bft) N 0,00 h 0,000 mm 0,0 UV-I 0 W/m -2,1 C -0,9 C 0,0 km/h (0 Bft)
05.01.2015 23:00 -1,2 C 93 % 1029,5 hPa 0,0 l/m 0,0 km/h (0 Bft) N 0,00 h 0,000 mm 0,0 UV-I 0 W/m -2,1 C -1,2 C 0,0 km/h (0 Bft)
06.01.2015 00:00 -1,4 C 94 % 1029,2 hPa 0,0 l/m 0,1 km/h (0 Bft) N 0,00 h 0,000 mm 0,0 UV-I 0 W/m -2,3 C -1,4 C 0,4 km/h (0 Bft)
06.01.2015 01:00 -1,4 C 95 % 1028,6 hPa 0,0 l/m 0,5 km/h (0 Bft) N 0,00 h 0,000 mm 0,0 UV-I 0 W/m -2,2 C -1,4 C 1,7 km/h (1 Bft)
06.01.2015 02:00 -1,6 C 95 % 1028,8 hPa 0,0 l/m 0,8 km/h (0 Bft) O-SO 0,00 h 0,000 mm 0,0 UV-I 0 W/m -2,3 C -1,6 C 2,3 km/h (1 Bft)
06.01.2015 03:00 -1,7 C 95 % 1028,7 hPa 0,0 l/m 0,0 km/h (0 Bft) N 0,00 h 0,000 mm 0,0 UV-I 0 W/m -2,4 C -1,7 C 0,1 km/h (0 Bft)
06.01.2015 04:00 -1,7 C 95 % 1028,1 hPa 0,0 l/m 0,0 km/h (0 Bft) N 0,00 h 0,000 mm 0,0 UV-I 0 W/m -2,4 C -1,7 C 0,1 km/h (0 Bft)
06.01.2015 05:00 -1,9 C 95 % 1027,6 hPa 0,0 l/m 0,1 km/h (0 Bft) N 0,00 h 0,000 mm 0,0 UV-I 0 W/m -2,6 C -1,9 C 0,4 km/h (0 Bft)
06.01.2015 06:00 -2,0 C 95 % 1027,6 hPa 0,0 l/m 0,2 km/h (0 Bft) N 0,00 h 0,000 mm 0,0 UV-I 0 W/m -2,7 C -2,0 C 0,9 km/h (0 Bft)
06.01.2015 07:00 -2,6 C 95 % 1027,8 hPa 0,0 l/m 0,2 km/h (0 Bft) N 0,00 h 0,000 mm 0,0 UV-I 0 W/m -3,4 C -2,6 C 0,6 km/h (0 Bft)
06.01.2015 08:00 -3,7 C 94 % 1028,1 hPa 0,0 l/m 0,1 km/h (0 Bft) N 0,00 h 0,000 mm 0,0 UV-I 11 W/m -4,5 C -3,7 C 0,2 km/h (0 Bft)
06.01.2015 09:00 -3,8 C 96 % 1028,2 hPa 0,0 l/m 0,0 km/h (0 Bft) N 0,63 h 0,000 mm 0,0 UV-I 59 W/m -4,4 C -3,8 C 0,1 km/h (0 Bft)
06.01.2015 10:00 -3,5 C 96 % 1028,2 hPa 0,0 l/m 0,0 km/h (0 Bft) N 1,00 h 0,025 mm 0,6 UV-I 170 W/m -4,0 C -3,5 C 0,2 km/h (0 Bft)
06.01.2015 11:00 -1,5 C 93 % 1028,0 hPa 0,0 l/m 0,0 km/h (0 Bft) N 1,00 h 0,051 mm 1,0 UV-I 302 W/m -2,4 C -1,5 C 0,7 km/h (0 Bft)
06.01.2015 12:00 1,3 C 84 % 1027,2 hPa 0,0 l/m 0,2 km/h (0 Bft) N 1,00 h 0,102 mm 1,0 UV-I 313 W/m -1,2 C 1,3 C 1,4 km/h (1 Bft)
06.01.2015 13:00 2,0 C 81 % 1026,4 hPa 0,0 l/m 0,6 km/h (0 Bft) SO 1,00 h 0,102 mm 0,8 UV-I 242 W/m -0,9 C 2,0 C 1,9 km/h (1 Bft)
06.01.2015 14:00 1,7 C 83 % 1026,3 hPa 0,0 l/m 0,2 km/h (0 Bft) N 1,00 h 0,076 mm 0,6 UV-I 121 W/m -0,9 C 1,7 C 1,1 km/h (1 Bft)
06.01.2015 15:00 1,0 C 85 % 1026,1 hPa 0,0 l/m 0,1 km/h (0 Bft) N 0,48 h 0,051 mm 0,0 UV-I 50 W/m -1,2 C 1,0 C 0,8 km/h (0 Bft)
06.01.2015 16:00 -0,2 C 87 % 1026,3 hPa 0,0 l/m 0,7 km/h (0 Bft) O 0,00 h 0,025 mm 0,0 UV-I 10 W/m -2,0 C -0,2 C 2,5 km/h (1 Bft)
06.01.2015 17:00 -1,4 C 89 % 1026,7 hPa 0,0 l/m 0,1 km/h (0 Bft) N 0,00 h 0,000 mm 0,0 UV-I 0 W/m -3,0 C -1,4 C 0,8 km/h (0 Bft)
06.01.2015 18:00 -2,7 C 91 % 1026,9 hPa 0,0 l/m 1,4 km/h (1 Bft) O 0,00 h 0,000 mm 0,0 UV-I 0 W/m -4,0 C -2,7 C 2,9 km/h (1 Bft)
06.01.2015 19:00 -3,6 C 92 % 1026,9 hPa 0,0 l/m 0,1 km/h (0 Bft) N 0,00 h 0,000 mm 0,0 UV-I 0 W/m -4,6 C -3,6 C 0,5 km/h (0 Bft)
06.01.2015 20:00 -4,1 C 93 % 1026,6 hPa 0,0 l/m 0,0 km/h (0 Bft) N 0,00 h 0,000 mm 0,0 UV-I 0 W/m -5,0 C -4,1 C 0,2 km/h (0 Bft)
06.01.2015 21:00 -4,3 C 94 % 1026,9 hPa 0,0 l/m 0,6 km/h (0 Bft) N 0,00 h 0,000 mm 0,0 UV-I 0 W/m -5,2 C -4,3 C 1,6 km/h (1 Bft)
06.01.2015 22:00 -4,5 C 94 % 1026,8 hPa 0,0 l/m 0,0 km/h (0 Bft) N 0,00 h 0,000 mm 0,0 UV-I 0 W/m -5,4 C -4,5 C 0,2 km/h (0 Bft)
06.01.2015 23:00 -5,0 C 94 % 1026,7 hPa 0,0 l/m 0,0 km/h (0 Bft) N 0,00 h 0,000 mm 0,0 UV-I 0 W/m -5,9 C -5,0 C 0,2 km/h (0 Bft)
07.01.2015 00:00 -5,7 C 93 % 1026,7 hPa 0,0 l/m 0,1 km/h (0 Bft) N 0,00 h 0,000 mm 0,0 UV-I 0 W/m -6,6 C -5,7 C 0,4 km/h (0 Bft)
07.01.2015 01:00 -6,1 C 94 % 1026,9 hPa 0,0 l/m 0,6 km/h (0 Bft) N 0,00 h 0,000 mm 0,0 UV-I 0 W/m -7,0 C -6,1 C 1,7 km/h (1 Bft)
07.01.2015 02:00 -5,7 C 95 % 1027,1 hPa 0,0 l/m 0,7 km/h (0 Bft) N 0,00 h 0,000 mm 0,0 UV-I 0 W/m -6,4 C -5,7 C 1,8 km/h (1 Bft)
07.01.2015 03:00 -4,2 C 97 % 1027,4 hPa 0,0 l/m 2,2 km/h (1 Bft) N 0,00 h 0,000 mm 0,0 UV-I 0 W/m -4,7 C -4,2 C 4,0 km/h (1 Bft)
07.01.2015 04:00 -3,5 C 96 % 1027,4 hPa 0,0 l/m 1,7 km/h (1 Bft) N 0,00 h 0,000 mm 0,0 UV-I 0 W/m -4,0 C -3,6 C 3,5 km/h (1 Bft)
07.01.2015 05:00 -1,7 C 96 % 1027,4 hPa 0,0 l/m 6,3 km/h (2 Bft) S 0,00 h 0,000 mm 0,0 UV-I 0 W/m -2,2 C -2,5 C 9,9 km/h (2 Bft)
07.01.2015 06:00 -1,4 C 95 % 1027,7 hPa 0,0 l/m 5,8 km/h (2 Bft) S 0,00 h 0,000 mm 0,0 UV-I 0 W/m -2,1 C -1,9 C 9,3 km/h (2 Bft)
07.01.2015 07:00 -1,3 C 95 % 1028,1 hPa 0,0 l/m 5,6 km/h (2 Bft) S 0,00 h 0,000 mm 0,0 UV-I 0 W/m -1,9 C -1,8 C 8,9 km/h (2 Bft)
07.01.2015 08:00 -1,0 C 96 % 1028,7 hPa 0,0 l/m 5,1 km/h (1 Bft) S-SW 0,00 h 0,000 mm 0,0 UV-I 7 W/m -1,6 C -1,3 C 8,2 km/h (2 Bft)
07.01.2015 09:00 -0,7 C 96 % 1029,2 hPa 0,0 l/m 3,7 km/h (1 Bft) W-SW 0,00 h 0,000 mm 0,0 UV-I 24 W/m -1,3 C -0,7 C 6,8 km/h (2 Bft)
07.01.2015 10:00 -0,3 C 96 % 1029,7 hPa 0,0 l/m 4,6 km/h (1 Bft) SW 0,30 h 0,000 mm 0,0 UV-I 47 W/m -0,9 C -0,4 C 8,0 km/h (2 Bft)
07.01.2015 11:00 0,1 C 97 % 1029,7 hPa 0,0 l/m 6,5 km/h (2 Bft) W-SW 0,58 h 0,025 mm 0,5 UV-I 55 W/m -0,4 C -0,8 C 10,1 km/h (2 Bft)
07.01.2015 12:00 0,6 C 96 % 1029,4 hPa 0,0 l/m 6,8 km/h (2 Bft) W-SW 0,98 h 0,025 mm 0,0 UV-I 57 W/m 0,1 C -0,4 C 10,8 km/h (2 Bft)
07.01.2015 13:00 0,8 C 95 % 1029,4 hPa 0,0 l/m 7,1 km/h (2 Bft) W 0,07 h 0,025 mm 0,0 UV-I 44 W/m 0,1 C -0,3 C 11,0 km/h (2 Bft)
07.01.2015 14:00 1,0 C 95 % 1029,8 hPa 0,0 l/m 6,5 km/h (2 Bft) W-NW 0,52 h 0,025 mm 0,0 UV-I 53 W/m 0,3 C 0,3 C 10,1 km/h (2 Bft)
07.01.2015 15:00 1,2 C 94 % 1030,5 hPa 0,0 l/m 3,1 km/h (1 Bft) W-NW 0,00 h 0,025 mm 0,0 UV-I 22 W/m 0,3 C 1,1 C 5,6 km/h (2 Bft)
07.01.2015 16:00 1,0 C 94 % 1031,0 hPa 0,0 l/m 1,0 km/h (0 Bft) W-NW 0,00 h 0,000 mm 0,0 UV-I 7 W/m 0,1 C 1,0 C 2,6 km/h (1 Bft)
07.01.2015 17:00 0,9 C 95 % 1031,2 hPa 0,0 l/m 2,2 km/h (1 Bft) SW 0,00 h 0,000 mm 0,0 UV-I 0 W/m 0,1 C 0,9 C 4,4 km/h (1 Bft)
07.01.2015 18:00 0,8 C 95 % 1031,5 hPa 0,0 l/m 3,7 km/h (1 Bft) W-SW 0,00 h 0,000 mm 0,0 UV-I 0 W/m 0,1 C 0,8 C 6,6 km/h (2 Bft)
07.01.2015 19:00 0,7 C 95 % 1031,7 hPa 0,0 l/m 5,4 km/h (1 Bft) W-SW 0,00 h 0,000 mm 0,0 UV-I 0 W/m -0,0 C 0,3 C 8,3 km/h (2 Bft)
07.01.2015 20:00 0,6 C 95 % 1031,8 hPa 0,0 l/m 3,2 km/h (1 Bft) SW 0,00 h 0,000 mm 0,0 UV-I 0 W/m -0,1 C 0,7 C 5,9 km/h (2 Bft)
07.01.2015 21:00 0,5 C 95 % 1031,8 hPa 0,0 l/m 2,2 km/h (1 Bft) SW 0,00 h 0,000 mm 0,0 UV-I 0 W/m -0,2 C 0,5 C 4,9 km/h (1 Bft)
07.01.2015 22:00 0,1 C 95 % 1031,5 hPa 0,0 l/m 4,5 km/h (1 Bft) S-SW 0,00 h 0,000 mm 0,0 UV-I 0 W/m -0,5 C 0,0 C 7,5 km/h (2 Bft)
07.01.2015 23:00 0,1 C 95 % 1031,1 hPa 0,0 l/m 4,8 km/h (1 Bft) SW 0,00 h 0,000 mm 0,0 UV-I 0 W/m -0,6 C -0,3 C 7,9 km/h (2 Bft)
08.01.2015 00:00 0,0 C 95 % 1031,1 hPa 0,0 l/m 5,9 km/h (2 Bft) SW 0,00 h 0,000 mm 0,0 UV-I 0 W/m -0,7 C -0,4 C 10,3 km/h (2 Bft)
08.01.2015 01:00 -0,3 C 95 % 1030,8 hPa 0,0 l/m 3,9 km/h (1 Bft) S-SW 0,00 h 0,000 mm 0,0 UV-I 0 W/m -1,0 C -0,4 C 7,3 km/h (2 Bft)
08.01.2015 02:00 -0,4 C 95 % 1030,5 hPa 0,0 l/m 6,2 km/h (2 Bft) S-SW 0,00 h 0,000 mm 0,0 UV-I 0 W/m -1,1 C -1,1 C 10,3 km/h (2 Bft)
08.01.2015 03:00 -0,4 C 95 % 1029,9 hPa 0,0 l/m 6,1 km/h (2 Bft) S 0,00 h 0,000 mm 0,0 UV-I 0 W/m -1,1 C -1,2 C 10,1 km/h (2 Bft)
08.01.2015 04:00 -0,2 C 95 % 1029,4 hPa 0,0 l/m 6,4 km/h (2 Bft) S-SW 0,00 h 0,000 mm 0,0 UV-I 0 W/m -0,9 C -1,0 C 10,7 km/h (2 Bft)
08.01.2015 05:00 0,1 C 94 % 1029,1 hPa 0,0 l/m 5,7 km/h (2 Bft) S-SW 0,00 h 0,000 mm 0,0 UV-I 0 W/m -0,7 C -0,5 C 9,7 km/h (2 Bft)
08.01.2015 06:00 0,3 C 94 % 1028,8 hPa 0,0 l/m 6,2 km/h (2 Bft) S-SW 0,00 h 0,000 mm 0,0 UV-I 0 W/m -0,6 C -0,6 C 9,6 km/h (2 Bft)
08.01.2015 07:00 0,3 C 95 % 1028,8 hPa 0,0 l/m 5,5 km/h (2 Bft) S-SW 0,00 h 0,000 mm 0,0 UV-I 0 W/m -0,4 C -0,2 C 9,4 km/h (2 Bft)
08.01.2015 08:00 0,6 C 96 % 1028,7 hPa 0,0 l/m 7,3 km/h (2 Bft) S-SW 0,00 h 0,000 mm 0,0 UV-I 10 W/m 0,0 C -0,6 C 12,1 km/h (2 Bft)
08.01.2015 09:00 1,2 C 95 % 1028,7 hPa 0,8 l/m 6,2 km/h (2 Bft) S-SW 0,00 h 0,000 mm 0,0 UV-I 17 W/m 0,5 C 0,4 C 10,7 km/h (2 Bft)
08.01.2015 10:00 1,3 C 96 % 1028,5 hPa 0,2 l/m 6,2 km/h (2 Bft) SW 0,18 h 0,000 mm 0,0 UV-I 40 W/m 0,7 C 0,5 C 10,4 km/h (2 Bft)
08.01.2015 11:00 1,8 C 96 % 1027,9 hPa 0,4 l/m 8,3 km/h (2 Bft) SW 1,00 h 0,025 mm 0,6 UV-I 83 W/m 1,3 C -0,1 C 13,4 km/h (3 Bft)
08.01.2015 12:00 2,2 C 96 % 1026,8 hPa 0,0 l/m 8,5 km/h (2 Bft) S-SW 0,62 h 0,025 mm 0,5 UV-I 55 W/m 1,7 C 0,2 C 13,2 km/h (3 Bft)
08.01.2015 13:00 2,4 C 97 % 1026,0 hPa 0,0 l/m 5,5 km/h (2 Bft) S 0,00 h 0,025 mm 0,0 UV-I 23 W/m 1,9 C 1,5 C 9,6 km/h (2 Bft)
08.01.2015 14:00 2,3 C 97 % 1025,7 hPa 0,2 l/m 4,8 km/h (1 Bft) S-SW 0,00 h 0,000 mm 0,0 UV-I 19 W/m 1,8 C 1,8 C 8,4 km/h (2 Bft)
08.01.2015 15:00 2,7 C 97 % 1025,5 hPa 0,0 l/m 8,2 km/h (2 Bft) S 0,00 h 0,000 mm 0,0 UV-I 9 W/m 2,3 C 0,8 C 13,0 km/h (3 Bft)
08.01.2015 16:00 2,7 C 97 % 1024,8 hPa 0,2 l/m 9,5 km/h (2 Bft) S-SW 0,00 h 0,000 mm 0,0 UV-I 0 W/m 2,3 C -0,0 C 14,8 km/h (3 Bft)
08.01.2015 17:00 3,0 C 97 % 1024,1 hPa 0,6 l/m 12,4 km/h (2 Bft) S 0,00 h 0,000 mm 0,0 UV-I 0 W/m 2,6 C -1,6 C 19,5 km/h (3 Bft)
08.01.2015 18:00 3,5 C 97 % 1023,3 hPa 0,0 l/m 12,0 km/h (2 Bft) S 0,00 h 0,000 mm 0,0 UV-I 0 W/m 3,1 C -0,8 C 19,5 km/h (3 Bft)
08.01.2015 19:00 3,4 C 97 % 1022,7 hPa 0,6 l/m 11,4 km/h (2 Bft) S-SW 0,00 h 0,000 mm 0,0 UV-I 0 W/m 2,9 C -0,6 C 18,1 km/h (3 Bft)
08.01.2015 20:00 3,3 C 97 % 1022,5 hPa 2,6 l/m 11,7 km/h (2 Bft) S-SW 0,00 h 0,000 mm 0,0 UV-I 0 W/m 2,9 C -0,8 C 18,9 km/h (3 Bft)
08.01.2015 21:00 3,7 C 97 % 1022,0 hPa 2,0 l/m 10,5 km/h (2 Bft) SW 0,00 h 0,000 mm 0,0 UV-I 0 W/m 3,3 C 0,5 C 16,4 km/h (3 Bft)
08.01.2015 22:00 4,9 C 97 % 1022,3 hPa 1,4 l/m 17,2 km/h (3 Bft) W-SW 0,00 h 0,000 mm 0,0 UV-I 0 W/m 4,5 C -1,9 C 27,4 km/h (5 Bft)
08.01.2015 23:00 5,5 C 93 % 1024,6 hPa 0,2 l/m 18,5 km/h (3 Bft) W 0,00 h 0,000 mm 0,0 UV-I 0 W/m 4,5 C -1,7 C 29,5 km/h (5 Bft)
09.01.2015 00:00 4,3 C 91 % 1027,5 hPa 0,0 l/m 15,1 km/h (3 Bft) W 0,00 h 0,000 mm 0,0 UV-I 0 W/m 2,9 C -1,6 C 23,7 km/h (4 Bft)
09.01.2015 01:00 3,4 C 91 % 1028,9 hPa 0,0 l/m 9,9 km/h (2 Bft) W 0,00 h 0,025 mm 0,0 UV-I 0 W/m 2,0 C 0,6 C 15,5 km/h (3 Bft)
09.01.2015 02:00 3,2 C 91 % 1029,4 hPa 0,0 l/m 15,2 km/h (3 Bft) W 0,00 h 0,000 mm 0,0 UV-I 0 W/m 2,0 C -3,0 C 23,5 km/h (4 Bft)
09.01.2015 03:00 3,0 C 94 % 1029,5 hPa 0,0 l/m 11,9 km/h (2 Bft) W 0,00 h 0,000 mm 0,0 UV-I 0 W/m 2,0 C -1,4 C 19,0 km/h (3 Bft)
09.01.2015 04:00 3,2 C 93 % 1029,0 hPa 0,0 l/m 14,0 km/h (3 Bft) W 0,00 h 0,000 mm 0,0 UV-I 0 W/m 2,2 C -2,4 C 21,0 km/h (4 Bft)
09.01.2015 05:00 3,5 C 92 % 1028,7 hPa 0,0 l/m 15,4 km/h (3 Bft) W-SW 0,00 h 0,000 mm 0,0 UV-I 0 W/m 2,3 C -2,8 C 23,2 km/h (4 Bft)
09.01.2015 06:00 3,6 C 92 % 1027,7 hPa 0,0 l/m 13,7 km/h (3 Bft) W-SW 0,00 h 0,000 mm 0,0 UV-I 0 W/m 2,5 C -1,8 C 21,6 km/h (4 Bft)
09.01.2015 07:00 3,7 C 93 % 1026,0 hPa 0,0 l/m 13,5 km/h (3 Bft) SW 0,00 h 0,000 mm 0,0 UV-I 0 W/m 2,6 C -1,6 C 22,2 km/h (4 Bft)
09.01.2015 08:00 4,1 C 91 % 1025,5 hPa 0,0 l/m 19,7 km/h (3 Bft) W-SW 0,00 h 0,000 mm 0,0 UV-I 7 W/m 2,7 C -4,1 C 31,8 km/h (5 Bft)
09.01.2015 09:00 4,2 C 89 % 1024,6 hPa 0,0 l/m 16,2 km/h (3 Bft) W-SW 0,00 h 0,025 mm 0,0 UV-I 18 W/m 2,6 C -2,3 C 25,5 km/h (4 Bft)
09.01.2015 10:00 4,4 C 89 % 1022,3 hPa 0,0 l/m 15,2 km/h (3 Bft) SW 0,43 h 0,025 mm 0,5 UV-I 60 W/m 2,8 C -1,6 C 24,8 km/h (4 Bft)
09.01.2015 11:00 5,0 C 87 % 1020,7 hPa 0,0 l/m 17,3 km/h (3 Bft) SW 0,15 h 0,027 mm 0,0 UV-I 35 W/m 2,9 C -1,8 C 27,5 km/h (5 Bft)
09.01.2015 12:00 5,4 C 84 % 1019,2 hPa 0,0 l/m 16,0 km/h (3 Bft) W-SW 0,00 h 0,025 mm 0,0 UV-I 19 W/m 3,0 C -0,7 C 26,1 km/h (4 Bft)
09.01.2015 13:00 4,9 C 91 % 1018,2 hPa 0,2 l/m 17,5 km/h (3 Bft) W-SW 0,05 h 0,025 mm 0,0 UV-I 25 W/m 3,7 C -2,0 C 27,0 km/h (4 Bft)
09.01.2015 14:00 5,1 C 94 % 1017,6 hPa 0,4 l/m 17,3 km/h (3 Bft) W-SW 0,00 h 0,025 mm 0,0 UV-I 15 W/m 4,3 C -1,8 C 27,0 km/h (4 Bft)
09.01.2015 15:00 5,4 C 95 % 1016,7 hPa 0,2 l/m 18,0 km/h (3 Bft) W-SW 0,00 h 0,025 mm 0,0 UV-I 10 W/m 4,6 C -1,7 C 28,3 km/h (5 Bft)
09.01.2015 16:00 5,8 C 96 % 1017,1 hPa 0,0 l/m 15,6 km/h (3 Bft) W 0,00 h 0,000 mm 0,0 UV-I 0 W/m 5,2 C -0,0 C 24,3 km/h (4 Bft)
09.01.2015 17:00 6,6 C 93 % 1017,0 hPa 0,2 l/m 18,6 km/h (3 Bft) W 0,00 h 0,000 mm 0,0 UV-I 0 W/m 5,5 C -0,5 C 29,2 km/h (5 Bft)
09.01.2015 18:00 7,0 C 92 % 1016,9 hPa 0,0 l/m 18,5 km/h (3 Bft) W 0,00 h 0,025 mm 0,0 UV-I 0 W/m 5,7 C 0,1 C 27,9 km/h (5 Bft)
09.01.2015 19:00 7,0 C 88 % 1016,5 hPa 0,2 l/m 20,1 km/h (4 Bft) W 0,00 h 0,025 mm 0,0 UV-I 0 W/m 5,2 C -0,4 C 31,8 km/h (5 Bft)
09.01.2015 20:00 6,7 C 91 % 1015,8 hPa 0,4 l/m 17,2 km/h (3 Bft) W 0,00 h 0,025 mm 0,0 UV-I 0 W/m 5,4 C 0,3 C 26,1 km/h (4 Bft)
09.01.2015 21:00 6,3 C 92 % 1015,7 hPa 0,2 l/m 13,6 km/h (3 Bft) W 0,00 h 0,025 mm 0,0 UV-I 0 W/m 5,1 C 1,6 C 20,7 km/h (4 Bft)
09.01.2015 22:00 6,1 C 94 % 1015,3 hPa 0,2 l/m 11,6 km/h (2 Bft) W 0,00 h 0,003 mm 0,0 UV-I 0 W/m 5,2 C 2,4 C 17,8 km/h (3 Bft)
09.01.2015 23:00 6,2 C 96 % 1014,2 hPa 0,2 l/m 11,6 km/h (2 Bft) W-SW 0,00 h 0,000 mm 0,0 UV-I 0 W/m 5,5 C 2,5 C 17,9 km/h (3 Bft)
10.01.2015 00:00 6,5 C 96 % 1013,1 hPa 0,6 l/m 8,4 km/h (2 Bft) W-SW 0,00 h 0,000 mm 0,0 UV-I 0 W/m 6,0 C 4,8 C 13,0 km/h (3 Bft)
10.01.2015 01:00 7,3 C 97 % 1012,2 hPa 0,6 l/m 10,1 km/h (2 Bft) W-SW 0,00 h 0,000 mm 0,0 UV-I 0 W/m 6,9 C 4,7 C 16,1 km/h (3 Bft)
10.01.2015 02:00 8,4 C 97 % 1011,9 hPa 0,2 l/m 12,2 km/h (2 Bft) W 0,00 h 0,000 mm 0,0 UV-I 0 W/m 8,0 C 4,7 C 19,0 km/h (3 Bft)
10.01.2015 03:00 9,6 C 97 % 1011,5 hPa 0,2 l/m 14,3 km/h (3 Bft) W 0,00 h 0,000 mm 0,0 UV-I 0 W/m 9,1 C 5,2 C 22,8 km/h (4 Bft)
10.01.2015 04:00 10,9 C 95 % 1011,8 hPa 0,2 l/m 21,5 km/h (4 Bft) W 0,00 h 0,000 mm 0,0 UV-I 0 W/m 10,1 C 4,2 C 33,9 km/h (5 Bft)
10.01.2015 05:00 10,9 C 95 % 1012,0 hPa 0,2 l/m 18,6 km/h (3 Bft) W 0,00 h 0,000 mm 0,0 UV-I 0 W/m 10,2 C 5,1 C 28,5 km/h (5 Bft)
10.01.2015 06:00 11,0 C 96 % 1012,2 hPa 0,2 l/m 17,8 km/h (3 Bft) W-SW 0,00 h 0,000 mm 0,0 UV-I 0 W/m 10,3 C 5,4 C 27,8 km/h (5 Bft)
10.01.2015 07:00 11,1 C 96 % 1012,3 hPa 0,2 l/m 18,7 km/h (3 Bft) W-SW 0,00 h 0,000 mm 0,0 UV-I 0 W/m 10,4 C 5,2 C 29,5 km/h (5 Bft)
10.01.2015 08:00 11,3 C 95 % 1012,6 hPa 0,0 l/m 17,5 km/h (3 Bft) W 0,00 h 0,000 mm 0,0 UV-I 6 W/m 10,5 C 6,0 C 26,8 km/h (4 Bft)
10.01.2015 09:00 11,4 C 95 % 1012,4 hPa 0,2 l/m 17,4 km/h (3 Bft) W-SW 0,00 h 0,000 mm 0,0 UV-I 10 W/m 10,5 C 6,1 C 27,5 km/h (5 Bft)
10.01.2015 10:00 11,2 C 93 % 1012,6 hPa 0,2 l/m 15,5 km/h (3 Bft) W-SW 0,00 h 0,025 mm 0,0 UV-I 15 W/m 10,1 C 6,6 C 25,4 km/h (4 Bft)
10.01.2015 11:00 11,3 C 89 % 1011,7 hPa 0,0 l/m 19,6 km/h (3 Bft) W-SW 0,45 h 0,025 mm 0,5 UV-I 52 W/m 9,6 C 5,4 C 32,0 km/h (5 Bft)
10.01.2015 12:00 11,4 C 86 % 1010,6 hPa 0,0 l/m 21,0 km/h (4 Bft) W-SW 0,52 h 0,051 mm 0,5 UV-I 54 W/m 9,2 C 4,9 C 32,9 km/h (5 Bft)
10.01.2015 13:00 11,5 C 84 % 1009,8 hPa 0,0 l/m 21,1 km/h (4 Bft) W-SW 0,00 h 0,051 mm 0,0 UV-I 28 W/m 8,9 C 5,0 C 33,0 km/h (5 Bft)
10.01.2015 14:00 11,6 C 83 % 1009,4 hPa 0,0 l/m 24,4 km/h (4 Bft) W-SW 0,00 h 0,051 mm 0,0 UV-I 18 W/m 8,7 C 4,2 C 37,6 km/h (5 Bft)
10.01.2015 15:00 11,3 C 83 % 1009,5 hPa 0,0 l/m 24,1 km/h (4 Bft) W-SW 0,00 h 0,051 mm 0,0 UV-I 8 W/m 8,4 C 3,9 C 38,4 km/h (6 Bft)
10.01.2015 16:00 10,3 C 88 % 1009,1 hPa 0,2 l/m 21,2 km/h (4 Bft) W-SW 0,00 h 0,051 mm 0,0 UV-I 5 W/m 8,4 C 3,5 C 32,8 km/h (5 Bft)
10.01.2015 17:00 9,7 C 92 % 1008,7 hPa 0,6 l/m 22,9 km/h (4 Bft) W-SW 0,00 h 0,025 mm 0,0 UV-I 0 W/m 8,5 C 2,1 C 35,9 km/h (5 Bft)
10.01.2015 18:00 9,7 C 92 % 1008,3 hPa 0,2 l/m 24,0 km/h (4 Bft) W-SW 0,00 h 0,025 mm 0,0 UV-I 0 W/m 8,5 C 1,8 C 38,1 km/h (6 Bft)
10.01.2015 19:00 9,6 C 93 % 1008,3 hPa 0,8 l/m 22,2 km/h (4 Bft) W-SW 0,00 h 0,025 mm 0,0 UV-I 0 W/m 8,5 C 2,2 C 35,6 km/h (5 Bft)
10.01.2015 20:00 9,3 C 93 % 1008,6 hPa 1,8 l/m 20,3 km/h (4 Bft) W 0,00 h 0,025 mm 0,0 UV-I 0 W/m 8,3 C 2,4 C 32,1 km/h (5 Bft)
10.01.2015 21:00 6,9 C 91 % 1010,3 hPa 1,0 l/m 17,8 km/h (3 Bft) W-NW 0,00 h 0,025 mm 0,0 UV-I 0 W/m 5,5 C 0,5 C 27,5 km/h (5 Bft)
10.01.2015 22:00 5,3 C 89 % 1011,5 hPa 0,0 l/m 15,0 km/h (3 Bft) W-NW 0,00 h 0,025 mm 0,0 UV-I 0 W/m 3,7 C -0,3 C 22,3 km/h (4 Bft)
10.01.2015 23:00 4,4 C 87 % 1012,2 hPa 0,0 l/m 9,4 km/h (2 Bft) W-NW 0,00 h 0,025 mm 0,0 UV-I 0 W/m 2,4 C 1,8 C 14,3 km/h (3 Bft)
11.01.2015 00:00 4,1 C 87 % 1012,3 hPa 0,0 l/m 7,8 km/h (2 Bft) W-NW 0,00 h 0,025 mm 0,0 UV-I 0 W/m 2,2 C 2,6 C 12,4 km/h (2 Bft)
11.01.2015 01:00 4,0 C 82 % 1012,0 hPa 0,0 l/m 7,9 km/h (2 Bft) W 0,00 h 0,025 mm 0,0 UV-I 0 W/m 1,2 C 2,4 C 12,7 km/h (3 Bft)
11.01.2015 02:00 3,5 C 81 % 1012,1 hPa 0,0 l/m 3,6 km/h (1 Bft) W 0,00 h 0,025 mm 0,0 UV-I 0 W/m 0,5 C 3,0 C 6,1 km/h (2 Bft)
11.01.2015 03:00 3,2 C 84 % 1012,0 hPa 0,0 l/m 6,5 km/h (2 Bft) W 0,00 h 0,025 mm 0,0 UV-I 0 W/m 0,8 C 2,2 C 10,5 km/h (2 Bft)
11.01.2015 04:00 2,4 C 81 % 1011,7 hPa 0,0 l/m 6,9 km/h (2 Bft) NW 0,00 h 0,025 mm 0,0 UV-I 0 W/m -0,5 C 1,4 C 10,5 km/h (2 Bft)
11.01.2015 05:00 1,6 C 82 % 1011,6 hPa 0,0 l/m 6,9 km/h (2 Bft) W-NW 0,00 h 0,025 mm 0,0 UV-I 0 W/m -1,2 C 0,5 C 10,7 km/h (2 Bft)
11.01.2015 06:00 1,4 C 81 % 1011,7 hPa 0,0 l/m 11,7 km/h (2 Bft) W 0,00 h 0,025 mm 0,0 UV-I 0 W/m -1,5 C -3,0 C 17,3 km/h (3 Bft)
11.01.2015 07:00 1,0 C 80 % 1011,9 hPa 0,0 l/m 12,1 km/h (2 Bft) W-SW 0,00 h 0,025 mm 0,0 UV-I 0 W/m -2,0 C -3,7 C 19,0 km/h (3 Bft)
11.01.2015 08:00 0,9 C 82 % 1012,4 hPa 0,0 l/m 11,3 km/h (2 Bft) W-SW 0,00 h 0,025 mm 0,0 UV-I 7 W/m -1,8 C -3,2 C 17,0 km/h (3 Bft)
11.01.2015 09:00 1,3 C 79 % 1013,2 hPa 0,2 l/m 14,1 km/h (3 Bft) W 0,00 h 0,025 mm 0,0 UV-I 30 W/m -2,0 C -4,7 C 22,2 km/h (4 Bft)
11.01.2015 10:00 1,4 C 79 % 1014,4 hPa 0,0 l/m 14,6 km/h (3 Bft) W-SW 0,42 h 0,025 mm 0,5 UV-I 51 W/m -1,8 C -4,8 C 22,5 km/h (4 Bft)
11.01.2015 11:00 1,5 C 82 % 1015,4 hPa 0,0 l/m 15,5 km/h (3 Bft) W 0,38 h 0,051 mm 0,5 UV-I 51 W/m -1,3 C -5,1 C 24,6 km/h (4 Bft)
11.01.2015 12:00 1,8 C 80 % 1016,0 hPa 0,0 l/m 17,8 km/h (3 Bft) W-SW 0,90 h 0,051 mm 0,6 UV-I 116 W/m -1,3 C -6,1 C 28,4 km/h (5 Bft)
11.01.2015 13:00 1,9 C 80 % 1015,9 hPa 0,0 l/m 19,0 km/h (3 Bft) W 0,95 h 0,076 mm 0,5 UV-I 106 W/m -1,2 C -6,5 C 29,8 km/h (5 Bft)
11.01.2015 14:00 1,8 C 83 % 1016,0 hPa 0,0 l/m 17,5 km/h (3 Bft) W 0,82 h 0,076 mm 0,5 UV-I 108 W/m -0,8 C -5,9 C 27,7 km/h (5 Bft)
11.01.2015 15:00 0,9 C 92 % 1016,6 hPa 0,2 l/m 14,4 km/h (3 Bft) W 0,18 h 0,051 mm 0,0 UV-I 32 W/m -0,3 C -5,4 C 22,4 km/h (4 Bft)
11.01.2015 16:00 1,2 C 86 % 1016,9 hPa 0,0 l/m 16,8 km/h (3 Bft) W 0,00 h 0,025 mm 0,0 UV-I 13 W/m -1,0 C -6,4 C 26,5 km/h (4 Bft)
11.01.2015 17:00 1,8 C 80 % 1017,8 hPa 0,0 l/m 18,3 km/h (3 Bft) W 0,00 h 0,025 mm 0,0 UV-I 0 W/m -1,3 C -6,4 C 29,0 km/h (5 Bft)
11.01.2015 18:00 1,9 C 79 % 1018,4 hPa 0,0 l/m 18,2 km/h (3 Bft) W 0,00 h 0,025 mm 0,0 UV-I 0 W/m -1,4 C -6,1 C 28,7 km/h (5 Bft)
11.01.2015 19:00 2,0 C 77 % 1019,0 hPa 0,0 l/m 17,2 km/h (3 Bft) W 0,00 h 0,025 mm 0,0 UV-I 0 W/m -1,6 C -5,5 C 28,0 km/h (5 Bft)
11.01.2015 20:00 2,1 C 76 % 1019,8 hPa 0,0 l/m 16,6 km/h (3 Bft) W 0,00 h 0,025 mm 0,0 UV-I 0 W/m -1,7 C -5,1 C 26,5 km/h (4 Bft)
11.01.2015 21:00 2,0 C 77 % 1020,6 hPa 0,0 l/m 16,1 km/h (3 Bft) W 0,00 h 0,025 mm 0,0 UV-I 0 W/m -1,5 C -5,0 C 25,3 km/h (4 Bft)
11.01.2015 22:00 2,2 C 77 % 1021,0 hPa 0,0 l/m 17,5 km/h (3 Bft) W 0,00 h 0,025 mm 0,0 UV-I 0 W/m -1,4 C -5,5 C 26,9 km/h (4 Bft)
11.01.2015 23:00 2,3 C 77 % 1021,2 hPa 0,0 l/m 17,4 km/h (3 Bft) W 0,00 h 0,025 mm 0,0 UV-I 0 W/m -1,3 C -5,2 C 27,3 km/h (5 Bft)
Min-Datum _ 07.01.15 11.01.15 10.01.15 - 05.01.15 - - - - - 07.01.15 11.01.15 05.01.15
_ Min-Zeit 01:27 12:57 18:44 - 00:12 - - - - - 01:28 12:07 16:01
Minimum _ -6,2 C 75 % 1007,9 hPa - 0,0 km/h (0 Bft) - - - - - -7,1 C -11,2 C 0,0 km/h (0 Bft)
Max-Datum _ 10.01.15 08.01.15 05.01.15 08.01.15 10.01.15 - 08.01.15 05.01.15 05.01.15 05.01.15 10.01.15 10.01.15 09.01.15
_ Max-Zeit 13:27 16:37 01:14 20:00 19:30 - 11:44 13:00 11:41 11:45 08:42 10:37 19:14
Maximum _ 11,6 C 98 % 1033,4 hPa 2,6 l/m 38,6 km/h
W-SW (6 Bft)
- 0,05 h 0,102 mm 1,0 UV-I 394 W/m 10,6 C 11,2 C 61,2 km/h
W (7 Bft)
Durchschnitt _ 2,3 C 91 % 1023,3 hPa #19,2 l/m 9,4 km/h (2 Bft) W-SW #21:51 h #2,629 mm 0,6 UV-I 63 W/m 0,9 C -0,7 C 15,1 km/h (3 Bft)